Terminal Aerodrome Forecast
Issued by NWS Shreveport, LA

Home | Current Version | Previous Version | Text Only | Print | Product List | Glossary On
Versions: 1 2 3 4 5 6 7 8 9 10 11 12 13 14 15 16 17
000
FTUS44 KSHV 222300 RRA
TAFMLU
TAF
KMLU 222347Z 2300/2324 18005KT P6SM SCT040 BKN250
     FM230600 22003KT 5SM BR SCT150 OVC250
     FM230800 VRB03KT 3SM BR SCT004 BKN020
      TEMPO 2308/2311 1 1/2SM BR OVC003
     FM231100 VRB03KT 1 1/2SM BR OVC003
     FM231600 03007KT 4SM BR OVC007
     FM231800 02007KT 5SM BR VCTS OVC007CB=

USA.gov is the U.S. government's official web portal to all federal, state and local government web resources and services.